Pagina principale
METAR-TAF:

METAR-TAF

Aeroporti :

Pembrey, Galles

latitudine: 51-43N, longitudine: 004-22W, altezza: 3 m

Osservazione

Il bollettino è stato emesso 1 ora e 13 minuti fa, alle 15:50 UTC
Vento 11 kt da sud
Temperature 25°C
Umidità 36%
Pressione 1020 hPa
Visibilità 10 km o più

METAR: EGOP 311550Z AUTO 18011KT 9999 // NCD 25/09 Q1020

Ora: 18:03 (17:03 UTC)


TAF: mancante

Osservazioni e previsioni meteorologiche di più di 4000 aeroporti (messaggi METAR e TAF).

Le stazioni disponibili sono rappresentate dai dischi gialli e rossi sulla carta.

Puntare il mouse per vedere il nome della stazione.

Clicca sopra per visualizzare le osservazioni e previsioni meteorologiche.

Per cambiare la mappa : fare clic sui pulsanti verdi con una croce nera per ingrandire, il pulsante verde con un trattino per diminuire, o sulla freccia verde per le mappe adiacenti.


METAR-TAF: